Terminal Aerodrome Forecast
Issued by NWS

Current Version | Previous Version | Graphics & Text | Print | Product List | Glossary On
Versions: 1 2 3 4 5 6 7 8 9 10 11 12 13 14 15 16 17 18 19 20 21 22 23 24 25 26 27 28 29 30 31 32 33 34 35 36 37 38 39 40 41
000
FTUS41 KRNK 302011 AAA
TAFLWB
TAF AMD
KLWB 302011Z 3020/0118 12005KT 6SM -RA BR SCT020 OVC040
      TEMPO 3020/3022 4SM -RA BR OVC020
     FM302300 11004KT 5SM -RA BR OVC011
     FM010300 13004KT 4SM -RA BR OVC007
     FM011200 19004KT 5SM -RA BR OVC015
     FM011600 22005KT P6SM -SHRA OVC040=

USA.gov is the U.S. government's official web portal to all federal, state and local government web resources and services.